sensor_id;sensor_type;location;lat;lon;timestamp;temperature;humidity
31837;DHT22;18401;49.344;6.240;2023-04-08T00:01:08;1.70;99.90
31837;DHT22;18401;49.344;6.240;2023-04-08T00:03:33;1.50;99.90
31837;DHT22;18401;49.344;6.240;2023-04-08T00:05:59;1.30;99.90
31837;DHT22;18401;49.344;6.240;2023-04-08T00:08:27;1.20;99.90
31837;DHT22;18401;49.344;6.240;2023-04-08T00:10:52;1.10;99.90
31837;DHT22;18401;49.344;6.240;2023-04-08T00:13:18;1.10;99.90
31837;DHT22;18401;49.344;6.240;2023-04-08T00:15:44;1.30;99.90
31837;DHT22;18401;49.344;6.240;2023-04-08T00:18:10;1.50;99.90
31837;DHT22;18401;49.344;6.240;2023-04-08T00:20:35;1.60;99.90
31837;DHT22;18401;49.344;6.240;2023-04-08T00:23:01;1.50;99.90
31837;DHT22;18401;49.344;6.240;2023-04-08T00:25:27;1.40;99.90
31837;DHT22;18401;49.344;6.240;2023-04-08T00:27:52;1.30;99.90
31837;DHT22;18401;49.344;6.240;2023-04-08T00:30:18;1.40;99.90
31837;DHT22;18401;49.344;6.240;2023-04-08T00:32:44;1.40;99.90
31837;DHT22;18401;49.344;6.240;2023-04-08T00:35:10;1.60;99.90
31837;DHT22;18401;49.344;6.240;2023-04-08T00:37:37;1.70;99.90
31837;DHT22;18401;49.344;6.240;2023-04-08T00:40:03;1.70;99.90
31837;DHT22;18401;49.344;6.240;2023-04-08T00:42:29;1.60;99.90
31837;DHT22;18401;49.344;6.240;2023-04-08T00:44:55;1.50;99.90
31837;DHT22;18401;49.344;6.240;2023-04-08T00:47:21;1.40;99.90
31837;DHT22;18401;49.344;6.240;2023-04-08T00:49:47;1.40;99.90
31837;DHT22;18401;49.344;6.240;2023-04-08T00:52:13;1.40;99.90
31837;DHT22;18401;49.344;6.240;2023-04-08T00:54:38;1.40;99.90
31837;DHT22;18401;49.344;6.240;2023-04-08T00:57:05;1.50;99.90
31837;DHT22;18401;49.344;6.240;2023-04-08T00:59:30;1.50;99.90
31837;DHT22;18401;49.344;6.240;2023-04-08T01:02:06;1.20;99.90
31837;DHT22;18401;49.344;6.240;2023-04-08T01:04:43;1.10;99.90
31837;DHT22;18401;49.344;6.240;2023-04-08T01:09:50;1.00;99.90
31837;DHT22;18401;49.344;6.240;2023-04-08T01:12:25;1.00;99.90
31837;DHT22;18401;49.344;6.240;2023-04-08T01:15:02;0.90;99.90
31837;DHT22;18401;49.344;6.240;2023-04-08T01:17:30;0.90;99.90
31837;DHT22;18401;49.344;6.240;2023-04-08T01:19:57;0.90;99.90
31837;DHT22;18401;49.344;6.240;2023-04-08T01:22:43;0.80;99.90
31837;DHT22;18401;49.344;6.240;2023-04-08T01:25:20;0.90;99.90
31837;DHT22;18401;49.344;6.240;2023-04-08T01:27:47;0.90;99.90
31837;DHT22;18401;49.344;6.240;2023-04-08T01:30:16;0.90;99.90
31837;DHT22;18401;49.344;6.240;2023-04-08T01:32:43;0.80;99.90
31837;DHT22;18401;49.344;6.240;2023-04-08T01:35:09;0.70;99.90
31837;DHT22;18401;49.344;6.240;2023-04-08T01:37:36;0.70;99.90
31837;DHT22;18401;49.344;6.240;2023-04-08T01:40:04;0.70;99.90
31837;DHT22;18401;49.344;6.240;2023-04-08T01:42:33;0.90;99.90
31837;DHT22;18401;49.344;6.240;2023-04-08T01:45:00;0.90;99.90
31837;DHT22;18401;49.344;6.240;2023-04-08T01:47:27;0.90;99.90
31837;DHT22;18401;49.344;6.240;2023-04-08T01:49:54;0.90;99.90
31837;DHT22;18401;49.344;6.240;2023-04-08T01:52:21;0.90;99.90
31837;DHT22;18401;49.344;6.240;2023-04-08T01:54:47;0.80;99.90
31837;DHT22;18401;49.344;6.240;2023-04-08T01:57:21;0.90;99.90
31837;DHT22;18401;49.344;6.240;2023-04-08T01:59:50;0.90;99.90
31837;DHT22;18401;49.344;6.240;2023-04-08T02:02:19;1.00;99.90
31837;DHT22;18401;49.344;6.240;2023-04-08T02:04:46;1.00;99.90
31837;DHT22;18401;49.344;6.240;2023-04-08T02:07:11;1.10;99.90
31837;DHT22;18401;49.344;6.240;2023-04-08T02:09:37;1.00;99.90
31837;DHT22;18401;49.344;6.240;2023-04-08T02:12:03;0.80;99.90
31837;DHT22;18401;49.344;6.240;2023-04-08T02:14:29;0.70;99.90
31837;DHT22;18401;49.344;6.240;2023-04-08T02:17:04;0.60;99.90
31837;DHT22;18401;49.344;6.240;2023-04-08T02:19:48;0.50;99.90
31837;DHT22;18401;49.344;6.240;2023-04-08T02:22:24;0.40;99.90
31837;DHT22;18401;49.344;6.240;2023-04-08T02:24:52;0.30;99.90
31837;DHT22;18401;49.344;6.240;2023-04-08T02:27:18;0.20;99.90
31837;DHT22;18401;49.344;6.240;2023-04-08T02:29:45;0.20;99.90
31837;DHT22;18401;49.344;6.240;2023-04-08T02:32:11;0.30;99.90
31837;DHT22;18401;49.344;6.240;2023-04-08T02:34:39;0.40;99.90
31837;DHT22;18401;49.344;6.240;2023-04-08T02:37:07;0.60;99.90
31837;DHT22;18401;49.344;6.240;2023-04-08T02:39:33;0.70;99.90
31837;DHT22;18401;49.344;6.240;2023-04-08T02:41:59;0.90;99.90
31837;DHT22;18401;49.344;6.240;2023-04-08T02:44:25;0.90;99.90
31837;DHT22;18401;49.344;6.240;2023-04-08T02:46:51;0.90;99.90
31837;DHT22;18401;49.344;6.240;2023-04-08T02:49:17;0.90;99.90
31837;DHT22;18401;49.344;6.240;2023-04-08T02:51:42;1.10;99.90
31837;DHT22;18401;49.344;6.240;2023-04-08T02:54:08;1.10;99.90
31837;DHT22;18401;49.344;6.240;2023-04-08T02:56:34;1.10;99.90
31837;DHT22;18401;49.344;6.240;2023-04-08T02:58:59;1.10;99.90
31837;DHT22;18401;49.344;6.240;2023-04-08T03:01:25;1.20;99.90
31837;DHT22;18401;49.344;6.240;2023-04-08T03:03:51;1.30;99.90
31837;DHT22;18401;49.344;6.240;2023-04-08T03:06:17;1.50;99.90
31837;DHT22;18401;49.344;6.240;2023-04-08T03:08:42;1.50;99.90
31837;DHT22;18401;49.344;6.240;2023-04-08T03:11:08;1.50;99.90
31837;DHT22;18401;49.344;6.240;2023-04-08T03:13:34;1.50;99.90
31837;DHT22;18401;49.344;6.240;2023-04-08T03:16:00;1.60;99.90
31837;DHT22;18401;49.344;6.240;2023-04-08T03:18:26;1.50;99.90
31837;DHT22;18401;49.344;6.240;2023-04-08T03:20:51;1.50;99.90
31837;DHT22;18401;49.344;6.240;2023-04-08T03:23:17;1.40;99.90
31837;DHT22;18401;49.344;6.240;2023-04-08T03:25:43;1.40;99.90
31837;DHT22;18401;49.344;6.240;2023-04-08T03:28:08;1.30;99.90
31837;DHT22;18401;49.344;6.240;2023-04-08T03:30:34;1.40;99.90
31837;DHT22;18401;49.344;6.240;2023-04-08T03:33:00;1.40;99.90
31837;DHT22;18401;49.344;6.240;2023-04-08T03:35:27;1.40;99.90
31837;DHT22;18401;49.344;6.240;2023-04-08T03:37:53;1.50;99.90
31837;DHT22;18401;49.344;6.240;2023-04-08T03:40:20;1.50;99.90
31837;DHT22;18401;49.344;6.240;2023-04-08T03:42:45;1.50;99.90
31837;DHT22;18401;49.344;6.240;2023-04-08T03:45:11;1.60;99.90
31837;DHT22;18401;49.344;6.240;2023-04-08T03:47:36;1.60;99.90
31837;DHT22;18401;49.344;6.240;2023-04-08T03:50:02;1.60;99.90
31837;DHT22;18401;49.344;6.240;2023-04-08T03:52:28;1.70;99.90
31837;DHT22;18401;49.344;6.240;2023-04-08T03:54:54;1.80;99.90
31837;DHT22;18401;49.344;6.240;2023-04-08T03:57:20;1.80;99.90
31837;DHT22;18401;49.344;6.240;2023-04-08T03:59:45;1.90;99.90
31837;DHT22;18401;49.344;6.240;2023-04-08T04:02:11;1.80;99.90
31837;DHT22;18401;49.344;6.240;2023-04-08T04:04:37;1.80;99.90
31837;DHT22;18401;49.344;6.240;2023-04-08T04:07:03;1.90;99.90
31837;DHT22;18401;49.344;6.240;2023-04-08T04:09:28;1.90;99.90
31837;DHT22;18401;49.344;6.240;2023-04-08T04:11:54;2.00;99.90
31837;DHT22;18401;49.344;6.240;2023-04-08T04:14:19;2.00;99.90
31837;DHT22;18401;49.344;6.240;2023-04-08T04:16:45;2.00;99.90
31837;DHT22;18401;49.344;6.240;2023-04-08T04:19:11;2.00;99.90
31837;DHT22;18401;49.344;6.240;2023-04-08T04:21:36;2.00;99.90
31837;DHT22;18401;49.344;6.240;2023-04-08T04:24:02;2.00;99.90
31837;DHT22;18401;49.344;6.240;2023-04-08T04:26:28;2.10;99.90
31837;DHT22;18401;49.344;6.240;2023-04-08T04:28:53;2.20;99.90
31837;DHT22;18401;49.344;6.240;2023-04-08T04:31:23;2.20;99.90
31837;DHT22;18401;49.344;6.240;2023-04-08T04:33:51;2.30;99.90
31837;DHT22;18401;49.344;6.240;2023-04-08T04:36:17;2.40;99.90
31837;DHT22;18401;49.344;6.240;2023-04-08T04:38:44;2.40;99.90
31837;DHT22;18401;49.344;6.240;2023-04-08T04:41:10;2.30;99.90
31837;DHT22;18401;49.344;6.240;2023-04-08T04:43:36;2.40;99.90
31837;DHT22;18401;49.344;6.240;2023-04-08T04:46:02;2.40;99.90
31837;DHT22;18401;49.344;6.240;2023-04-08T04:48:28;2.40;99.90
31837;DHT22;18401;49.344;6.240;2023-04-08T04:50:55;2.50;99.90
31837;DHT22;18401;49.344;6.240;2023-04-08T04:53:21;2.50;99.90
31837;DHT22;18401;49.344;6.240;2023-04-08T04:55:47;2.40;99.90
31837;DHT22;18401;49.344;6.240;2023-04-08T04:58:12;2.50;99.90
31837;DHT22;18401;49.344;6.240;2023-04-08T05:00:38;2.50;99.90
31837;DHT22;18401;49.344;6.240;2023-04-08T05:03:04;2.50;99.90
31837;DHT22;18401;49.344;6.240;2023-04-08T05:05:30;2.60;99.90
31837;DHT22;18401;49.344;6.240;2023-04-08T05:07:55;2.60;99.90
31837;DHT22;18401;49.344;6.240;2023-04-08T05:10:21;2.60;99.90
31837;DHT22;18401;49.344;6.240;2023-04-08T05:12:47;2.60;99.90
31837;DHT22;18401;49.344;6.240;2023-04-08T05:15:12;2.70;99.90
31837;DHT22;18401;49.344;6.240;2023-04-08T05:17:38;2.70;99.90
31837;DHT22;18401;49.344;6.240;2023-04-08T05:20:04;2.80;99.90
31837;DHT22;18401;49.344;6.240;2023-04-08T05:22:31;2.80;99.90
31837;DHT22;18401;49.344;6.240;2023-04-08T05:24:57;2.90;99.90
31837;DHT22;18401;49.344;6.240;2023-04-08T05:27:23;3.00;99.90
31837;DHT22;18401;49.344;6.240;2023-04-08T05:29:48;3.10;99.90
31837;DHT22;18401;49.344;6.240;2023-04-08T05:32:14;3.10;99.90
31837;DHT22;18401;49.344;6.240;2023-04-08T05:34:41;3.10;99.90
31837;DHT22;18401;49.344;6.240;2023-04-08T05:37:07;3.20;99.90
31837;DHT22;18401;49.344;6.240;2023-04-08T05:39:33;3.20;99.90
31837;DHT22;18401;49.344;6.240;2023-04-08T05:41:58;3.20;99.90
31837;DHT22;18401;49.344;6.240;2023-04-08T05:44:24;3.20;99.90
31837;DHT22;18401;49.344;6.240;2023-04-08T05:46:50;3.30;99.90
31837;DHT22;18401;49.344;6.240;2023-04-08T05:49:15;3.20;99.90
31837;DHT22;18401;49.344;6.240;2023-04-08T05:51:42;3.30;99.90
31837;DHT22;18401;49.344;6.240;2023-04-08T05:54:07;3.40;99.90
31837;DHT22;18401;49.344;6.240;2023-04-08T05:56:33;3.50;99.90
31837;DHT22;18401;49.344;6.240;2023-04-08T05:58:59;3.50;99.90
31837;DHT22;18401;49.344;6.240;2023-04-08T06:01:25;3.80;99.90
31837;DHT22;18401;49.344;6.240;2023-04-08T06:03:51;4.00;99.90
31837;DHT22;18401;49.344;6.240;2023-04-08T06:06:23;4.10;99.90
31837;DHT22;18401;49.344;6.240;2023-04-08T06:08:49;4.20;99.90
31837;DHT22;18401;49.344;6.240;2023-04-08T06:11:15;4.30;99.90
31837;DHT22;18401;49.344;6.240;2023-04-08T06:13:41;4.50;99.90
31837;DHT22;18401;49.344;6.240;2023-04-08T06:16:14;4.60;99.90
31837;DHT22;18401;49.344;6.240;2023-04-08T06:18:42;4.70;99.90
31837;DHT22;18401;49.344;6.240;2023-04-08T06:21:09;4.90;99.90
31837;DHT22;18401;49.344;6.240;2023-04-08T06:23:35;4.90;99.90
31837;DHT22;18401;49.344;6.240;2023-04-08T06:26:01;4.90;99.90
31837;DHT22;18401;49.344;6.240;2023-04-08T06:28:30;5.00;99.90
31837;DHT22;18401;49.344;6.240;2023-04-08T06:30:57;5.10;99.90
31837;DHT22;18401;49.344;6.240;2023-04-08T06:33:23;5.20;99.90
31837;DHT22;18401;49.344;6.240;2023-04-08T06:35:48;5.30;99.90
31837;DHT22;18401;49.344;6.240;2023-04-08T06:38:14;5.50;99.90
31837;DHT22;18401;49.344;6.240;2023-04-08T06:40:40;5.70;99.90
31837;DHT22;18401;49.344;6.240;2023-04-08T06:43:05;5.70;99.90
31837;DHT22;18401;49.344;6.240;2023-04-08T06:45:34;5.90;99.90
31837;DHT22;18401;49.344;6.240;2023-04-08T06:48:00;6.00;99.90
31837;DHT22;18401;49.344;6.240;2023-04-08T06:50:25;6.10;99.90
31837;DHT22;18401;49.344;6.240;2023-04-08T06:52:51;6.10;99.90
31837;DHT22;18401;49.344;6.240;2023-04-08T06:55:17;6.20;99.90
31837;DHT22;18401;49.344;6.240;2023-04-08T06:57:42;6.30;99.90
31837;DHT22;18401;49.344;6.240;2023-04-08T07:00:09;6.50;99.90
31837;DHT22;18401;49.344;6.240;2023-04-08T07:02:34;6.50;99.90
31837;DHT22;18401;49.344;6.240;2023-04-08T07:05:01;6.60;99.90
31837;DHT22;18401;49.344;6.240;2023-04-08T07:07:26;6.60;99.90
31837;DHT22;18401;49.344;6.240;2023-04-08T07:09:52;6.80;99.90
31837;DHT22;18401;49.344;6.240;2023-04-08T07:12:18;7.00;99.90
31837;DHT22;18401;49.344;6.240;2023-04-08T07:14:43;7.10;99.90
31837;DHT22;18401;49.344;6.240;2023-04-08T07:17:09;7.30;99.90
31837;DHT22;18401;49.344;6.240;2023-04-08T07:19:35;7.60;99.90
31837;DHT22;18401;49.344;6.240;2023-04-08T07:22:00;7.70;99.90
31837;DHT22;18401;49.344;6.240;2023-04-08T07:24:26;7.90;99.90
31837;DHT22;18401;49.344;6.240;2023-04-08T07:26:52;8.00;99.90
31837;DHT22;18401;49.344;6.240;2023-04-08T07:29:19;8.10;99.90
31837;DHT22;18401;49.344;6.240;2023-04-08T07:31:45;8.30;99.90
31837;DHT22;18401;49.344;6.240;2023-04-08T07:34:11;8.50;99.90
31837;DHT22;18401;49.344;6.240;2023-04-08T07:36:36;8.40;99.90
31837;DHT22;18401;49.344;6.240;2023-04-08T07:39:03;8.30;99.90
31837;DHT22;18401;49.344;6.240;2023-04-08T07:41:28;8.40;99.90
31837;DHT22;18401;49.344;6.240;2023-04-08T07:43:54;8.50;99.90
31837;DHT22;18401;49.344;6.240;2023-04-08T07:46:20;8.60;99.90
31837;DHT22;18401;49.344;6.240;2023-04-08T07:48:46;8.70;99.90
31837;DHT22;18401;49.344;6.240;2023-04-08T07:51:11;8.70;99.90
31837;DHT22;18401;49.344;6.240;2023-04-08T07:53:38;8.90;99.90
31837;DHT22;18401;49.344;6.240;2023-04-08T07:56:10;9.10;99.90
31837;DHT22;18401;49.344;6.240;2023-04-08T07:58:36;9.20;99.90
31837;DHT22;18401;49.344;6.240;2023-04-08T08:01:02;9.40;99.90
31837;DHT22;18401;49.344;6.240;2023-04-08T08:03:28;9.60;99.90
31837;DHT22;18401;49.344;6.240;2023-04-08T08:05:53;9.40;99.90
31837;DHT22;18401;49.344;6.240;2023-04-08T08:08:19;9.10;99.90
31837;DHT22;18401;49.344;6.240;2023-04-08T08:10:45;9.30;99.90
31837;DHT22;18401;49.344;6.240;2023-04-08T08:13:11;9.30;99.90
31837;DHT22;18401;49.344;6.240;2023-04-08T08:15:41;9.10;99.90
31837;DHT22;18401;49.344;6.240;2023-04-08T08:18:06;9.10;99.90
31837;DHT22;18401;49.344;6.240;2023-04-08T08:20:34;9.10;99.90
31837;DHT22;18401;49.344;6.240;2023-04-08T08:23:00;9.00;99.90
31837;DHT22;18401;49.344;6.240;2023-04-08T08:25:26;9.10;99.90
31837;DHT22;18401;49.344;6.240;2023-04-08T08:27:51;8.90;99.90
31837;DHT22;18401;49.344;6.240;2023-04-08T08:30:17;8.70;99.90
31837;DHT22;18401;49.344;6.240;2023-04-08T08:32:45;8.80;99.90
31837;DHT22;18401;49.344;6.240;2023-04-08T08:35:11;9.00;99.90
31837;DHT22;18401;49.344;6.240;2023-04-08T08:37:37;9.20;99.90
31837;DHT22;18401;49.344;6.240;2023-04-08T08:40:02;9.50;99.90
31837;DHT22;18401;49.344;6.240;2023-04-08T08:42:28;9.90;99.90
31837;DHT22;18401;49.344;6.240;2023-04-08T08:44:54;10.50;99.90
31837;DHT22;18401;49.344;6.240;2023-04-08T08:47:19;11.00;99.90
31837;DHT22;18401;49.344;6.240;2023-04-08T08:49:46;11.10;99.90
31837;DHT22;18401;49.344;6.240;2023-04-08T08:52:15;10.70;99.90
31837;DHT22;18401;49.344;6.240;2023-04-08T08:54:43;10.70;99.90
31837;DHT22;18401;49.344;6.240;2023-04-08T08:57:18;11.00;99.90
31837;DHT22;18401;49.344;6.240;2023-04-08T08:59:47;11.50;99.90
31837;DHT22;18401;49.344;6.240;2023-04-08T09:02:28;11.80;99.90
31837;DHT22;18401;49.344;6.240;2023-04-08T09:04:58;11.90;99.90
31837;DHT22;18401;49.344;6.240;2023-04-08T09:07:26;12.00;99.90
31837;DHT22;18401;49.344;6.240;2023-04-08T09:09:53;12.00;99.90
31837;DHT22;18401;49.344;6.240;2023-04-08T09:12:19;11.80;99.90
31837;DHT22;18401;49.344;6.240;2023-04-08T09:14:45;11.90;99.90
31837;DHT22;18401;49.344;6.240;2023-04-08T09:17:11;12.10;99.90
31837;DHT22;18401;49.344;6.240;2023-04-08T09:19:37;11.90;99.90
31837;DHT22;18401;49.344;6.240;2023-04-08T09:22:08;11.30;99.90
31837;DHT22;18401;49.344;6.240;2023-04-08T09:24:34;10.90;99.90
31837;DHT22;18401;49.344;6.240;2023-04-08T09:27:01;10.90;99.90
31837;DHT22;18401;49.344;6.240;2023-04-08T09:29:27;10.90;99.90
31837;DHT22;18401;49.344;6.240;2023-04-08T09:31:57;10.90;99.90
31837;DHT22;18401;49.344;6.240;2023-04-08T09:34:24;11.50;99.90
31837;DHT22;18401;49.344;6.240;2023-04-08T09:36:51;12.20;99.90
31837;DHT22;18401;49.344;6.240;2023-04-08T09:39:17;12.90;99.90
31837;DHT22;18401;49.344;6.240;2023-04-08T09:41:43;13.50;99.90
31837;DHT22;18401;49.344;6.240;2023-04-08T09:44:11;13.90;99.90
31837;DHT22;18401;49.344;6.240;2023-04-08T09:49:32;13.80;99.90
31837;DHT22;18401;49.344;6.240;2023-04-08T09:52:10;14.00;99.90
31837;DHT22;18401;49.344;6.240;2023-04-08T09:57:43;12.80;99.90
31837;DHT22;18401;49.344;6.240;2023-04-08T10:00:13;12.40;99.90
31837;DHT22;18401;49.344;6.240;2023-04-08T10:02:55;12.70;99.90
31837;DHT22;18401;49.344;6.240;2023-04-08T10:05:25;13.40;99.90
31837;DHT22;18401;49.344;6.240;2023-04-08T10:07:51;13.80;99.90
31837;DHT22;18401;49.344;6.240;2023-04-08T10:10:20;15.00;99.90
31837;DHT22;18401;49.344;6.240;2023-04-08T10:12:47;15.60;99.90
31837;DHT22;18401;49.344;6.240;2023-04-08T10:15:30;15.30;99.90
31837;DHT22;18401;49.344;6.240;2023-04-08T10:22:59;15.40;99.90
31837;DHT22;18401;49.344;6.240;2023-04-08T10:27:57;13.20;99.90
31837;DHT22;18401;49.344;6.240;2023-04-08T10:32:55;14.30;99.90
31837;DHT22;18401;49.344;6.240;2023-04-08T10:35:30;15.40;99.90
31837;DHT22;18401;49.344;6.240;2023-04-08T10:37:56;14.60;95.70
31837;DHT22;18401;49.344;6.240;2023-04-08T10:40:23;14.60;99.90
31837;DHT22;18401;49.344;6.240;2023-04-08T10:42:58;15.90;99.90
31837;DHT22;18401;49.344;6.240;2023-04-08T10:45:24;17.00;87.10
31837;DHT22;18401;49.344;6.240;2023-04-08T10:47:50;17.20;53.00
31837;DHT22;18401;49.344;6.240;2023-04-08T10:50:18;16.40;43.00
31837;DHT22;18401;49.344;6.240;2023-04-08T10:52:51;17.10;46.30
31837;DHT22;18401;49.344;6.240;2023-04-08T10:55:25;17.00;23.30
31837;DHT22;18401;49.344;6.240;2023-04-08T10:57:52;17.20;22.80
31837;DHT22;18401;49.344;6.240;2023-04-08T11:00:31;17.50;22.30
31837;DHT22;18401;49.344;6.240;2023-04-08T11:03:04;16.80;8.60
31837;DHT22;18401;49.344;6.240;2023-04-08T11:05:30;17.20;25.70
31837;DHT22;18401;49.344;6.240;2023-04-08T11:07:58;16.70;7.40
31837;DHT22;18401;49.344;6.240;2023-04-08T11:10:24;16.00;18.40
31837;DHT22;18401;49.344;6.240;2023-04-08T11:12:50;17.00;26.00
31837;DHT22;18401;49.344;6.240;2023-04-08T11:15:16;17.60;22.80
31837;DHT22;18401;49.344;6.240;2023-04-08T11:17:43;18.40;1.00
31837;DHT22;18401;49.344;6.240;2023-04-08T11:20:09;17.80;1.00
31837;DHT22;18401;49.344;6.240;2023-04-08T11:22:35;16.50;2.90
31837;DHT22;18401;49.344;6.240;2023-04-08T11:25:01;17.10;20.00
31837;DHT22;18401;49.344;6.240;2023-04-08T11:27:27;18.50;9.90
31837;DHT22;18401;49.344;6.240;2023-04-08T11:29:54;18.60;1.00
31837;DHT22;18401;49.344;6.240;2023-04-08T11:32:21;18.80;5.00
31837;DHT22;18401;49.344;6.240;2023-04-08T11:34:48;19.40;1.00
31837;DHT22;18401;49.344;6.240;2023-04-08T11:37:14;19.70;1.00
31837;DHT22;18401;49.344;6.240;2023-04-08T11:39:42;19.30;1.00
31837;DHT22;18401;49.344;6.240;2023-04-08T11:42:08;19.10;1.00
31837;DHT22;18401;49.344;6.240;2023-04-08T11:44:34;19.00;1.00
31837;DHT22;18401;49.344;6.240;2023-04-08T11:46:59;18.30;1.00
31837;DHT22;18401;49.344;6.240;2023-04-08T11:49:26;18.00;1.00
31837;DHT22;18401;49.344;6.240;2023-04-08T11:51:57;17.50;1.00
31837;DHT22;18401;49.344;6.240;2023-04-08T11:54:31;16.60;1.60
31837;DHT22;18401;49.344;6.240;2023-04-08T11:56:57;15.40;10.80
31837;DHT22;18401;49.344;6.240;2023-04-08T11:59:26;15.00;25.10
31837;DHT22;18401;49.344;6.240;2023-04-08T12:01:52;16.00;24.50
31837;DHT22;18401;49.344;6.240;2023-04-08T12:04:18;17.40;19.20
31837;DHT22;18401;49.344;6.240;2023-04-08T12:06:43;17.80;1.00
31837;DHT22;18401;49.344;6.240;2023-04-08T12:09:12;17.80;1.00
31837;DHT22;18401;49.344;6.240;2023-04-08T12:11:37;18.30;1.00
31837;DHT22;18401;49.344;6.240;2023-04-08T12:14:04;18.60;1.00
31837;DHT22;18401;49.344;6.240;2023-04-08T12:16:30;19.00;1.00
31837;DHT22;18401;49.344;6.240;2023-04-08T12:18:56;18.80;1.00
31837;DHT22;18401;49.344;6.240;2023-04-08T12:21:21;19.10;1.00
31837;DHT22;18401;49.344;6.240;2023-04-08T12:23:47;19.10;1.00
31837;DHT22;18401;49.344;6.240;2023-04-08T12:26:13;19.20;1.00
31837;DHT22;18401;49.344;6.240;2023-04-08T12:28:39;19.50;1.00
31837;DHT22;18401;49.344;6.240;2023-04-08T12:31:05;19.80;1.00
31837;DHT22;18401;49.344;6.240;2023-04-08T12:33:31;19.90;99.90
31837;DHT22;18401;49.344;6.240;2023-04-08T12:35:56;19.40;1.00
31837;DHT22;18401;49.344;6.240;2023-04-08T12:38:24;19.60;1.00
31837;DHT22;18401;49.344;6.240;2023-04-08T12:40:50;19.80;99.90
31837;DHT22;18401;49.344;6.240;2023-04-08T12:43:15;19.60;99.90
31837;DHT22;18401;49.344;6.240;2023-04-08T12:45:42;20.00;99.90
31837;DHT22;18401;49.344;6.240;2023-04-08T12:48:07;20.00;1.00
31837;DHT22;18401;49.344;6.240;2023-04-08T12:50:33;20.00;1.00
31837;DHT22;18401;49.344;6.240;2023-04-08T12:52:59;20.20;99.90
31837;DHT22;18401;49.344;6.240;2023-04-08T12:55:25;19.70;99.90
31837;DHT22;18401;49.344;6.240;2023-04-08T12:57:51;18.80;99.90
31837;DHT22;18401;49.344;6.240;2023-04-08T13:00:17;18.80;1.00
31837;DHT22;18401;49.344;6.240;2023-04-08T13:02:44;19.30;1.00
31837;DHT22;18401;49.344;6.240;2023-04-08T13:05:10;19.60;99.90
31837;DHT22;18401;49.344;6.240;2023-04-08T13:07:36;18.80;99.90
31837;DHT22;18401;49.344;6.240;2023-04-08T13:10:02;19.20;1.00
31837;DHT22;18401;49.344;6.240;2023-04-08T13:12:28;19.50;99.90
31837;DHT22;18401;49.344;6.240;2023-04-08T13:14:54;19.70;99.90
31837;DHT22;18401;49.344;6.240;2023-04-08T13:17:20;19.50;99.90
31837;DHT22;18401;49.344;6.240;2023-04-08T13:19:46;20.00;99.90
31837;DHT22;18401;49.344;6.240;2023-04-08T13:22:15;20.10;99.90
31837;DHT22;18401;49.344;6.240;2023-04-08T13:24:40;19.30;99.90
31837;DHT22;18401;49.344;6.240;2023-04-08T13:27:06;18.50;99.90
31837;DHT22;18401;49.344;6.240;2023-04-08T13:29:32;18.00;99.90
31837;DHT22;18401;49.344;6.240;2023-04-08T13:31:58;17.20;99.90
31837;DHT22;18401;49.344;6.240;2023-04-08T13:34:24;16.50;99.90
31837;DHT22;18401;49.344;6.240;2023-04-08T13:36:50;16.50;1.00
31837;DHT22;18401;49.344;6.240;2023-04-08T13:39:15;16.40;1.00
31837;DHT22;18401;49.344;6.240;2023-04-08T13:41:41;16.60;1.00
31837;DHT22;18401;49.344;6.240;2023-04-08T13:44:06;16.90;1.00
31837;DHT22;18401;49.344;6.240;2023-04-08T13:46:32;16.90;1.00
31837;DHT22;18401;49.344;6.240;2023-04-08T13:48:58;16.90;1.00
31837;DHT22;18401;49.344;6.240;2023-04-08T13:51:23;16.60;1.00
31837;DHT22;18401;49.344;6.240;2023-04-08T13:53:50;16.60;1.00
31837;DHT22;18401;49.344;6.240;2023-04-08T13:56:16;16.50;1.00
31837;DHT22;18401;49.344;6.240;2023-04-08T13:58:41;16.40;1.00
31837;DHT22;18401;49.344;6.240;2023-04-08T14:01:07;16.60;1.00
31837;DHT22;18401;49.344;6.240;2023-04-08T14:03:33;16.40;1.00
31837;DHT22;18401;49.344;6.240;2023-04-08T14:06:00;16.50;1.00
31837;DHT22;18401;49.344;6.240;2023-04-08T14:08:26;16.30;1.00
31837;DHT22;18401;49.344;6.240;2023-04-08T14:10:54;16.30;1.00
31837;DHT22;18401;49.344;6.240;2023-04-08T14:13:20;16.40;1.00
31837;DHT22;18401;49.344;6.240;2023-04-08T14:15:46;16.40;1.00
31837;DHT22;18401;49.344;6.240;2023-04-08T14:18:14;16.30;1.00
31837;DHT22;18401;49.344;6.240;2023-04-08T14:20:42;16.40;1.00
31837;DHT22;18401;49.344;6.240;2023-04-08T14:23:08;16.20;1.00
31837;DHT22;18401;49.344;6.240;2023-04-08T14:25:34;16.20;1.00
31837;DHT22;18401;49.344;6.240;2023-04-08T14:28:00;16.40;1.00
31837;DHT22;18401;49.344;6.240;2023-04-08T14:30:25;16.70;1.00
31837;DHT22;18401;49.344;6.240;2023-04-08T14:32:51;17.00;99.90
31837;DHT22;18401;49.344;6.240;2023-04-08T14:35:17;17.20;1.00
31837;DHT22;18401;49.344;6.240;2023-04-08T14:37:43;16.90;99.90
31837;DHT22;18401;49.344;6.240;2023-04-08T14:40:09;16.90;1.00
31837;DHT22;18401;49.344;6.240;2023-04-08T14:42:35;16.80;1.00
31837;DHT22;18401;49.344;6.240;2023-04-08T14:45:00;16.70;1.00
31837;DHT22;18401;49.344;6.240;2023-04-08T14:47:28;17.00;1.00
31837;DHT22;18401;49.344;6.240;2023-04-08T14:49:53;17.30;1.00
31837;DHT22;18401;49.344;6.240;2023-04-08T14:52:19;17.40;99.90
31837;DHT22;18401;49.344;6.240;2023-04-08T14:54:45;17.20;99.90
31837;DHT22;18401;49.344;6.240;2023-04-08T14:57:12;17.60;99.90
31837;DHT22;18401;49.344;6.240;2023-04-08T14:59:37;17.50;99.90
31837;DHT22;18401;49.344;6.240;2023-04-08T15:02:03;16.90;1.00
31837;DHT22;18401;49.344;6.240;2023-04-08T15:04:29;16.40;1.00
31837;DHT22;18401;49.344;6.240;2023-04-08T15:06:55;15.50;1.00
31837;DHT22;18401;49.344;6.240;2023-04-08T15:09:21;15.50;1.00
31837;DHT22;18401;49.344;6.240;2023-04-08T15:11:47;15.60;4.10
31837;DHT22;18401;49.344;6.240;2023-04-08T15:14:12;15.80;1.00
31837;DHT22;18401;49.344;6.240;2023-04-08T15:16:38;16.30;1.00
31837;DHT22;18401;49.344;6.240;2023-04-08T15:19:04;16.70;1.00
31837;DHT22;18401;49.344;6.240;2023-04-08T15:21:30;16.80;1.00
31837;DHT22;18401;49.344;6.240;2023-04-08T15:23:56;16.60;1.00
31837;DHT22;18401;49.344;6.240;2023-04-08T15:26:22;16.70;1.00
31837;DHT22;18401;49.344;6.240;2023-04-08T15:28:48;16.50;1.00
31837;DHT22;18401;49.344;6.240;2023-04-08T15:31:14;16.40;1.00
31837;DHT22;18401;49.344;6.240;2023-04-08T15:33:40;16.40;1.00
31837;DHT22;18401;49.344;6.240;2023-04-08T15:36:07;16.40;1.00
31837;DHT22;18401;49.344;6.240;2023-04-08T15:38:33;16.40;1.00
31837;DHT22;18401;49.344;6.240;2023-04-08T15:40:58;16.20;1.00
31837;DHT22;18401;49.344;6.240;2023-04-08T15:43:24;16.00;1.00
31837;DHT22;18401;49.344;6.240;2023-04-08T15:45:51;15.70;1.00
31837;DHT22;18401;49.344;6.240;2023-04-08T15:48:17;15.50;1.00
31837;DHT22;18401;49.344;6.240;2023-04-08T15:50:43;15.40;6.40
31837;DHT22;18401;49.344;6.240;2023-04-08T15:53:08;15.30;13.40
31837;DHT22;18401;49.344;6.240;2023-04-08T15:55:39;15.30;16.00
31837;DHT22;18401;49.344;6.240;2023-04-08T15:58:05;15.10;18.60